Easthampton, Massachusetts
Current Conditions -  °F | °C
As of 12:53 AM on Saturday 20 Dec 2014 (Local Time) from KBAF Reporting Station
Clear Clear  
Wind Chill: 17°   Ceiling: Unl
Heat Index: 24°   Visibility: 10mi
Dew Point: 18°   Wind: 6mph
Humidity: 77%   Direction: 360°N
Pressure: 30.17"   Gusts: NA
Location:  42.27°N, 72.67°W
Report Text: KBAF 200553Z AUTO 36005KT 10SM CLR M04/M08 A3017 RMK AO2 SLP224 T10441078 11011 21050 51017
Loading
Personal Weather Stations






























Interactive Weather Map New forecast layout! Learn more

10-Day Weather Forecast

Advertisements
Track Severe Weather on mobile